sensor_id;sensor_type;location;lat;lon;timestamp;P1;durP1;ratioP1;P2;durP2;ratioP2
66741;SDS011;53654;54.152;19.432;2023-04-06T00:02:08;9.00;;;5.60;;
66741;SDS011;53654;54.152;19.432;2023-04-06T00:04:36;9.00;;;5.90;;
66741;SDS011;53654;54.152;19.432;2023-04-06T00:07:04;7.30;;;5.70;;
66741;SDS011;53654;54.152;19.432;2023-04-06T00:09:33;7.80;;;6.30;;
66741;SDS011;53654;54.152;19.432;2023-04-06T00:12:01;6.80;;;5.50;;
66741;SDS011;53654;54.152;19.432;2023-04-06T00:14:29;8.00;;;5.90;;
66741;SDS011;53654;54.152;19.432;2023-04-06T00:16:57;7.50;;;5.80;;
66741;SDS011;53654;54.152;19.432;2023-04-06T00:19:25;8.20;;;5.90;;
66741;SDS011;53654;54.152;19.432;2023-04-06T00:21:53;8.00;;;5.90;;
66741;SDS011;53654;54.152;19.432;2023-04-06T00:24:21;8.50;;;6.00;;
66741;SDS011;53654;54.152;19.432;2023-04-06T00:26:49;6.70;;;5.30;;
66741;SDS011;53654;54.152;19.432;2023-04-06T00:29:17;7.60;;;5.30;;
66741;SDS011;53654;54.152;19.432;2023-04-06T00:31:45;9.00;;;6.40;;
66741;SDS011;53654;54.152;19.432;2023-04-06T00:34:13;9.40;;;6.80;;
66741;SDS011;53654;54.152;19.432;2023-04-06T00:36:43;11.20;;;7.40;;
66741;SDS011;53654;54.152;19.432;2023-04-06T00:39:11;10.70;;;7.40;;
66741;SDS011;53654;54.152;19.432;2023-04-06T00:41:40;8.00;;;6.20;;
66741;SDS011;53654;54.152;19.432;2023-04-06T00:44:16;10.10;;;7.20;;
66741;SDS011;53654;54.152;19.432;2023-04-06T00:46:44;10.30;;;7.60;;
66741;SDS011;53654;54.152;19.432;2023-04-06T00:49:13;9.60;;;7.70;;
66741;SDS011;53654;54.152;19.432;2023-04-06T00:51:41;9.80;;;7.80;;
66741;SDS011;53654;54.152;19.432;2023-04-06T00:54:09;11.70;;;9.30;;
66741;SDS011;53654;54.152;19.432;2023-04-06T00:56:38;14.10;;;10.40;;
66741;SDS011;53654;54.152;19.432;2023-04-06T00:59:06;15.70;;;11.30;;
66741;SDS011;53654;54.152;19.432;2023-04-06T01:01:35;15.30;;;11.00;;
66741;SDS011;53654;54.152;19.432;2023-04-06T01:04:08;11.20;;;8.40;;
66741;SDS011;53654;54.152;19.432;2023-04-06T01:06:39;9.40;;;7.80;;
66741;SDS011;53654;54.152;19.432;2023-04-06T01:09:08;10.10;;;7.20;;
66741;SDS011;53654;54.152;19.432;2023-04-06T01:11:37;6.50;;;5.50;;
66741;SDS011;53654;54.152;19.432;2023-04-06T01:14:06;5.40;;;4.90;;
66741;SDS011;53654;54.152;19.432;2023-04-06T01:16:44;8.30;;;5.70;;
66741;SDS011;53654;54.152;19.432;2023-04-06T01:19:15;6.50;;;5.10;;
66741;SDS011;53654;54.152;19.432;2023-04-06T01:21:47;5.40;;;4.90;;
66741;SDS011;53654;54.152;19.432;2023-04-06T01:24:23;6.00;;;5.10;;
66741;SDS011;53654;54.152;19.432;2023-04-06T01:27:20;5.90;;;5.10;;
66741;SDS011;53654;54.152;19.432;2023-04-06T01:29:51;6.50;;;5.40;;
66741;SDS011;53654;54.152;19.432;2023-04-06T01:32:32;7.60;;;5.60;;
66741;SDS011;53654;54.152;19.432;2023-04-06T01:35:00;6.20;;;5.30;;
66741;SDS011;53654;54.152;19.432;2023-04-06T01:37:29;5.80;;;5.20;;
66741;SDS011;53654;54.152;19.432;2023-04-06T01:40:00;5.40;;;4.90;;
66741;SDS011;53654;54.152;19.432;2023-04-06T01:42:39;6.80;;;5.20;;
66741;SDS011;53654;54.152;19.432;2023-04-06T01:45:08;7.10;;;5.50;;
66741;SDS011;53654;54.152;19.432;2023-04-06T01:47:37;7.00;;;5.70;;
66741;SDS011;53654;54.152;19.432;2023-04-06T01:50:05;7.00;;;6.00;;
66741;SDS011;53654;54.152;19.432;2023-04-06T01:52:38;7.20;;;6.50;;
66741;SDS011;53654;54.152;19.432;2023-04-06T01:55:06;6.80;;;6.20;;
66741;SDS011;53654;54.152;19.432;2023-04-06T01:58:07;8.30;;;6.60;;
66741;SDS011;53654;54.152;19.432;2023-04-06T02:00:38;8.50;;;7.00;;
66741;SDS011;53654;54.152;19.432;2023-04-06T02:03:08;7.80;;;7.00;;
66741;SDS011;53654;54.152;19.432;2023-04-06T02:05:36;7.70;;;6.80;;
66741;SDS011;53654;54.152;19.432;2023-04-06T02:08:15;7.80;;;6.40;;
66741;SDS011;53654;54.152;19.432;2023-04-06T02:10:43;8.00;;;6.60;;
66741;SDS011;53654;54.152;19.432;2023-04-06T02:13:18;7.00;;;5.70;;
66741;SDS011;53654;54.152;19.432;2023-04-06T02:15:49;6.60;;;5.80;;
66741;SDS011;53654;54.152;19.432;2023-04-06T02:18:17;7.20;;;5.60;;
66741;SDS011;53654;54.152;19.432;2023-04-06T02:20:45;6.70;;;5.60;;
66741;SDS011;53654;54.152;19.432;2023-04-06T02:23:14;7.20;;;5.70;;
66741;SDS011;53654;54.152;19.432;2023-04-06T02:25:42;6.40;;;5.40;;
66741;SDS011;53654;54.152;19.432;2023-04-06T02:28:10;7.90;;;5.80;;
66741;SDS011;53654;54.152;19.432;2023-04-06T02:30:38;6.10;;;5.30;;
66741;SDS011;53654;54.152;19.432;2023-04-06T02:33:06;7.00;;;5.70;;
66741;SDS011;53654;54.152;19.432;2023-04-06T02:35:41;7.20;;;5.70;;
66741;SDS011;53654;54.152;19.432;2023-04-06T02:38:09;7.00;;;5.70;;
66741;SDS011;53654;54.152;19.432;2023-04-06T02:40:37;8.00;;;5.80;;
66741;SDS011;53654;54.152;19.432;2023-04-06T02:43:20;7.20;;;5.40;;
66741;SDS011;53654;54.152;19.432;2023-04-06T02:45:50;7.50;;;5.60;;
66741;SDS011;53654;54.152;19.432;2023-04-06T02:48:19;7.70;;;5.80;;
66741;SDS011;53654;54.152;19.432;2023-04-06T02:50:47;6.20;;;5.30;;
66741;SDS011;53654;54.152;19.432;2023-04-06T02:53:15;7.50;;;5.60;;
66741;SDS011;53654;54.152;19.432;2023-04-06T02:55:43;7.80;;;5.90;;
66741;SDS011;53654;54.152;19.432;2023-04-06T02:58:11;6.80;;;5.80;;
66741;SDS011;53654;54.152;19.432;2023-04-06T03:00:44;6.30;;;5.60;;
66741;SDS011;53654;54.152;19.432;2023-04-06T03:03:13;6.20;;;5.30;;
66741;SDS011;53654;54.152;19.432;2023-04-06T03:05:42;7.70;;;5.90;;
66741;SDS011;53654;54.152;19.432;2023-04-06T03:08:10;8.50;;;5.90;;
66741;SDS011;53654;54.152;19.432;2023-04-06T03:10:41;7.80;;;5.70;;
66741;SDS011;53654;54.152;19.432;2023-04-06T03:13:10;8.50;;;6.10;;
66741;SDS011;53654;54.152;19.432;2023-04-06T03:15:45;6.90;;;5.30;;
66741;SDS011;53654;54.152;19.432;2023-04-06T03:18:17;7.40;;;5.70;;
66741;SDS011;53654;54.152;19.432;2023-04-06T03:20:49;5.00;;;4.50;;
66741;SDS011;53654;54.152;19.432;2023-04-06T03:23:18;5.90;;;4.50;;
66741;SDS011;53654;54.152;19.432;2023-04-06T03:25:52;5.80;;;4.90;;
66741;SDS011;53654;54.152;19.432;2023-04-06T03:28:20;6.50;;;4.90;;
66741;SDS011;53654;54.152;19.432;2023-04-06T03:30:59;6.90;;;5.20;;
66741;SDS011;53654;54.152;19.432;2023-04-06T03:33:41;5.20;;;4.70;;
66741;SDS011;53654;54.152;19.432;2023-04-06T03:36:13;5.10;;;4.50;;
66741;SDS011;53654;54.152;19.432;2023-04-06T03:38:42;6.10;;;4.70;;
66741;SDS011;53654;54.152;19.432;2023-04-06T03:41:12;5.00;;;4.50;;
66741;SDS011;53654;54.152;19.432;2023-04-06T03:43:44;6.00;;;4.30;;
66741;SDS011;53654;54.152;19.432;2023-04-06T03:46:12;6.50;;;4.40;;
66741;SDS011;53654;54.152;19.432;2023-04-06T03:48:40;6.40;;;4.40;;
66741;SDS011;53654;54.152;19.432;2023-04-06T03:51:08;7.00;;;4.30;;
66741;SDS011;53654;54.152;19.432;2023-04-06T03:53:36;4.50;;;4.10;;
66741;SDS011;53654;54.152;19.432;2023-04-06T03:56:05;6.10;;;4.10;;
66741;SDS011;53654;54.152;19.432;2023-04-06T03:58:33;5.20;;;3.70;;
66741;SDS011;53654;54.152;19.432;2023-04-06T04:01:01;4.50;;;3.70;;
66741;SDS011;53654;54.152;19.432;2023-04-06T04:03:29;4.60;;;3.70;;
66741;SDS011;53654;54.152;19.432;2023-04-06T04:05:57;5.10;;;4.00;;
66741;SDS011;53654;54.152;19.432;2023-04-06T04:08:25;6.30;;;4.10;;
66741;SDS011;53654;54.152;19.432;2023-04-06T04:10:53;5.40;;;4.00;;
66741;SDS011;53654;54.152;19.432;2023-04-06T04:13:22;7.30;;;4.30;;
66741;SDS011;53654;54.152;19.432;2023-04-06T04:15:51;6.50;;;4.60;;
66741;SDS011;53654;54.152;19.432;2023-04-06T04:18:20;5.90;;;4.20;;
66741;SDS011;53654;54.152;19.432;2023-04-06T04:20:48;5.60;;;4.20;;
66741;SDS011;53654;54.152;19.432;2023-04-06T04:23:19;7.80;;;5.20;;
66741;SDS011;53654;54.152;19.432;2023-04-06T04:25:48;7.10;;;4.50;;
66741;SDS011;53654;54.152;19.432;2023-04-06T04:28:16;6.00;;;4.20;;
66741;SDS011;53654;54.152;19.432;2023-04-06T04:30:44;6.90;;;4.80;;
66741;SDS011;53654;54.152;19.432;2023-04-06T04:33:12;7.00;;;4.50;;
66741;SDS011;53654;54.152;19.432;2023-04-06T04:35:41;7.40;;;4.70;;
66741;SDS011;53654;54.152;19.432;2023-04-06T04:38:09;6.60;;;4.60;;
66741;SDS011;53654;54.152;19.432;2023-04-06T04:40:39;6.90;;;5.20;;
66741;SDS011;53654;54.152;19.432;2023-04-06T04:43:09;9.70;;;6.30;;
66741;SDS011;53654;54.152;19.432;2023-04-06T04:45:37;9.80;;;7.30;;
66741;SDS011;53654;54.152;19.432;2023-04-06T04:48:12;9.80;;;8.00;;
66741;SDS011;53654;54.152;19.432;2023-04-06T04:50:51;11.20;;;8.10;;
66741;SDS011;53654;54.152;19.432;2023-04-06T04:53:20;10.20;;;7.40;;
66741;SDS011;53654;54.152;19.432;2023-04-06T04:55:51;10.70;;;7.40;;
66741;SDS011;53654;54.152;19.432;2023-04-06T04:58:19;9.00;;;7.60;;
66741;SDS011;53654;54.152;19.432;2023-04-06T05:00:51;11.10;;;7.60;;
66741;SDS011;53654;54.152;19.432;2023-04-06T05:03:23;12.90;;;7.60;;
66741;SDS011;53654;54.152;19.432;2023-04-06T05:05:59;10.70;;;7.60;;
66741;SDS011;53654;54.152;19.432;2023-04-06T05:08:30;10.60;;;8.50;;
66741;SDS011;53654;54.152;19.432;2023-04-06T05:10:58;10.00;;;8.30;;
66741;SDS011;53654;54.152;19.432;2023-04-06T05:13:29;11.70;;;9.00;;
66741;SDS011;53654;54.152;19.432;2023-04-06T05:15:58;11.00;;;9.00;;
66741;SDS011;53654;54.152;19.432;2023-04-06T05:18:29;13.30;;;10.70;;
66741;SDS011;53654;54.152;19.432;2023-04-06T05:20:57;14.70;;;10.20;;
66741;SDS011;53654;54.152;19.432;2023-04-06T05:23:35;14.10;;;11.10;;
66741;SDS011;53654;54.152;19.432;2023-04-06T05:26:03;17.80;;;12.40;;
66741;SDS011;53654;54.152;19.432;2023-04-06T05:28:32;17.10;;;14.00;;
66741;SDS011;53654;54.152;19.432;2023-04-06T05:31:00;18.90;;;13.60;;
66741;SDS011;53654;54.152;19.432;2023-04-06T05:33:33;18.70;;;14.30;;
66741;SDS011;53654;54.152;19.432;2023-04-06T05:36:05;18.50;;;14.50;;
66741;SDS011;53654;54.152;19.432;2023-04-06T05:38:37;18.30;;;14.70;;
66741;SDS011;53654;54.152;19.432;2023-04-06T05:41:13;18.40;;;15.00;;
66741;SDS011;53654;54.152;19.432;2023-04-06T05:43:41;15.60;;;13.70;;
66741;SDS011;53654;54.152;19.432;2023-04-06T05:46:09;16.90;;;13.10;;
66741;SDS011;53654;54.152;19.432;2023-04-06T05:48:38;16.30;;;13.60;;
66741;SDS011;53654;54.152;19.432;2023-04-06T05:51:06;17.20;;;14.00;;
66741;SDS011;53654;54.152;19.432;2023-04-06T05:53:43;14.50;;;12.50;;
66741;SDS011;53654;54.152;19.432;2023-04-06T05:56:11;13.20;;;10.90;;
66741;SDS011;53654;54.152;19.432;2023-04-06T05:58:39;12.10;;;10.90;;
66741;SDS011;53654;54.152;19.432;2023-04-06T06:01:08;12.50;;;11.20;;
66741;SDS011;53654;54.152;19.432;2023-04-06T06:03:41;11.40;;;10.20;;
66741;SDS011;53654;54.152;19.432;2023-04-06T06:06:09;10.30;;;9.40;;
66741;SDS011;53654;54.152;19.432;2023-04-06T06:08:46;11.60;;;10.40;;
66741;SDS011;53654;54.152;19.432;2023-04-06T06:11:15;11.80;;;10.70;;
66741;SDS011;53654;54.152;19.432;2023-04-06T06:13:44;11.90;;;10.80;;
66741;SDS011;53654;54.152;19.432;2023-04-06T06:16:12;11.50;;;10.40;;
66741;SDS011;53654;54.152;19.432;2023-04-06T06:18:44;12.40;;;11.20;;
66741;SDS011;53654;54.152;19.432;2023-04-06T06:21:13;12.90;;;11.60;;
66741;SDS011;53654;54.152;19.432;2023-04-06T06:23:41;12.90;;;11.60;;
66741;SDS011;53654;54.152;19.432;2023-04-06T06:26:12;10.90;;;9.90;;
66741;SDS011;53654;54.152;19.432;2023-04-06T06:28:40;10.40;;;9.40;;
66741;SDS011;53654;54.152;19.432;2023-04-06T06:31:09;10.70;;;8.60;;
66741;SDS011;53654;54.152;19.432;2023-04-06T06:33:38;7.70;;;6.90;;
66741;SDS011;53654;54.152;19.432;2023-04-06T06:36:06;8.30;;;7.50;;
66741;SDS011;53654;54.152;19.432;2023-04-06T06:38:34;8.10;;;7.30;;
66741;SDS011;53654;54.152;19.432;2023-04-06T06:41:03;8.60;;;7.60;;
66741;SDS011;53654;54.152;19.432;2023-04-06T06:43:32;8.40;;;7.60;;
66741;SDS011;53654;54.152;19.432;2023-04-06T06:46:07;6.60;;;6.00;;
66741;SDS011;53654;54.152;19.432;2023-04-06T06:48:35;6.30;;;5.70;;
66741;SDS011;53654;54.152;19.432;2023-04-06T06:51:04;5.40;;;4.90;;
66741;SDS011;53654;54.152;19.432;2023-04-06T06:53:32;6.00;;;5.30;;
66741;SDS011;53654;54.152;19.432;2023-04-06T06:56:00;5.20;;;4.70;;
66741;SDS011;53654;54.152;19.432;2023-04-06T06:58:29;5.80;;;4.70;;
66741;SDS011;53654;54.152;19.432;2023-04-06T07:00:57;4.30;;;3.80;;
66741;SDS011;53654;54.152;19.432;2023-04-06T07:03:27;3.10;;;2.80;;
66741;SDS011;53654;54.152;19.432;2023-04-06T07:05:55;3.00;;;2.70;;
66741;SDS011;53654;54.152;19.432;2023-04-06T07:08:24;3.00;;;2.70;;
66741;SDS011;53654;54.152;19.432;2023-04-06T07:10:53;3.80;;;2.70;;
66741;SDS011;53654;54.152;19.432;2023-04-06T07:13:23;4.10;;;3.70;;
66741;SDS011;53654;54.152;19.432;2023-04-06T07:15:54;5.20;;;3.40;;
66741;SDS011;53654;54.152;19.432;2023-04-06T07:18:23;4.20;;;2.80;;
66741;SDS011;53654;54.152;19.432;2023-04-06T07:20:51;4.20;;;3.60;;
66741;SDS011;53654;54.152;19.432;2023-04-06T07:23:19;2.90;;;2.30;;
66741;SDS011;53654;54.152;19.432;2023-04-06T07:25:47;3.10;;;2.30;;
66741;SDS011;53654;54.152;19.432;2023-04-06T07:28:18;3.30;;;2.10;;
66741;SDS011;53654;54.152;19.432;2023-04-06T07:30:46;2.20;;;1.90;;
66741;SDS011;53654;54.152;19.432;2023-04-06T07:33:15;1.80;;;1.70;;
66741;SDS011;53654;54.152;19.432;2023-04-06T07:35:43;2.40;;;2.20;;
66741;SDS011;53654;54.152;19.432;2023-04-06T07:38:11;1.90;;;1.80;;
66741;SDS011;53654;54.152;19.432;2023-04-06T07:40:39;2.30;;;2.10;;
66741;SDS011;53654;54.152;19.432;2023-04-06T07:43:07;3.00;;;2.00;;
66741;SDS011;53654;54.152;19.432;2023-04-06T07:45:36;1.50;;;1.40;;
66741;SDS011;53654;54.152;19.432;2023-04-06T07:48:04;2.60;;;2.30;;
66741;SDS011;53654;54.152;19.432;2023-04-06T07:50:33;2.90;;;2.30;;
66741;SDS011;53654;54.152;19.432;2023-04-06T07:53:01;4.00;;;2.70;;
66741;SDS011;53654;54.152;19.432;2023-04-06T07:55:30;2.30;;;1.90;;
66741;SDS011;53654;54.152;19.432;2023-04-06T07:57:58;2.20;;;1.90;;
66741;SDS011;53654;54.152;19.432;2023-04-06T08:00:26;1.80;;;1.50;;
66741;SDS011;53654;54.152;19.432;2023-04-06T08:02:54;1.70;;;1.40;;
66741;SDS011;53654;54.152;19.432;2023-04-06T08:05:22;1.90;;;1.40;;
66741;SDS011;53654;54.152;19.432;2023-04-06T08:07:50;1.80;;;1.50;;
66741;SDS011;53654;54.152;19.432;2023-04-06T08:10:18;1.30;;;1.30;;
66741;SDS011;53654;54.152;19.432;2023-04-06T08:12:46;1.10;;;1.10;;
66741;SDS011;53654;54.152;19.432;2023-04-06T08:15:14;1.50;;;1.40;;
66741;SDS011;53654;54.152;19.432;2023-04-06T08:17:43;1.40;;;1.30;;
66741;SDS011;53654;54.152;19.432;2023-04-06T08:20:11;1.60;;;1.50;;
66741;SDS011;53654;54.152;19.432;2023-04-06T08:22:39;2.20;;;1.70;;
66741;SDS011;53654;54.152;19.432;2023-04-06T08:25:07;2.00;;;1.70;;
66741;SDS011;53654;54.152;19.432;2023-04-06T08:27:37;2.00;;;1.80;;
66741;SDS011;53654;54.152;19.432;2023-04-06T08:30:05;2.20;;;2.00;;
66741;SDS011;53654;54.152;19.432;2023-04-06T08:32:34;2.80;;;1.90;;
66741;SDS011;53654;54.152;19.432;2023-04-06T08:35:02;2.60;;;2.30;;
66741;SDS011;53654;54.152;19.432;2023-04-06T08:37:30;4.20;;;3.10;;
66741;SDS011;53654;54.152;19.432;2023-04-06T08:39:59;2.10;;;1.90;;
66741;SDS011;53654;54.152;19.432;2023-04-06T08:42:28;2.10;;;1.90;;
66741;SDS011;53654;54.152;19.432;2023-04-06T08:44:59;2.30;;;1.90;;
66741;SDS011;53654;54.152;19.432;2023-04-06T08:47:28;1.60;;;1.50;;
66741;SDS011;53654;54.152;19.432;2023-04-06T08:49:56;1.80;;;1.50;;
66741;SDS011;53654;54.152;19.432;2023-04-06T08:52:26;2.30;;;1.80;;
66741;SDS011;53654;54.152;19.432;2023-04-06T08:54:56;1.50;;;1.40;;
66741;SDS011;53654;54.152;19.432;2023-04-06T08:57:24;1.50;;;1.40;;
66741;SDS011;53654;54.152;19.432;2023-04-06T08:59:53;1.90;;;1.60;;
66741;SDS011;53654;54.152;19.432;2023-04-06T09:02:23;2.10;;;1.70;;
66741;SDS011;53654;54.152;19.432;2023-04-06T09:04:53;1.60;;;1.50;;
66741;SDS011;53654;54.152;19.432;2023-04-06T09:07:22;2.40;;;1.60;;
66741;SDS011;53654;54.152;19.432;2023-04-06T09:09:51;1.80;;;1.30;;
66741;SDS011;53654;54.152;19.432;2023-04-06T09:12:26;1.50;;;1.40;;
66741;SDS011;53654;54.152;19.432;2023-04-06T09:14:56;1.70;;;1.30;;
66741;SDS011;53654;54.152;19.432;2023-04-06T09:17:26;1.40;;;1.30;;
66741;SDS011;53654;54.152;19.432;2023-04-06T09:20:01;1.80;;;1.60;;
66741;SDS011;53654;54.152;19.432;2023-04-06T09:22:37;1.50;;;1.30;;
66741;SDS011;53654;54.152;19.432;2023-04-06T09:25:06;1.50;;;1.40;;
66741;SDS011;53654;54.152;19.432;2023-04-06T09:27:38;1.70;;;1.50;;
66741;SDS011;53654;54.152;19.432;2023-04-06T09:30:10;3.90;;;1.60;;
66741;SDS011;53654;54.152;19.432;2023-04-06T09:32:47;2.90;;;2.10;;
66741;SDS011;53654;54.152;19.432;2023-04-06T09:35:17;3.10;;;2.50;;
66741;SDS011;53654;54.152;19.432;2023-04-06T09:37:48;3.00;;;2.70;;
66741;SDS011;53654;54.152;19.432;2023-04-06T09:40:18;5.40;;;3.20;;
66741;SDS011;53654;54.152;19.432;2023-04-06T09:42:47;4.80;;;4.00;;
66741;SDS011;53654;54.152;19.432;2023-04-06T09:45:18;5.00;;;4.00;;
66741;SDS011;53654;54.152;19.432;2023-04-06T09:47:46;5.60;;;4.10;;
66741;SDS011;53654;54.152;19.432;2023-04-06T09:50:14;4.90;;;3.30;;
66741;SDS011;53654;54.152;19.432;2023-04-06T09:52:48;3.60;;;3.00;;
66741;SDS011;53654;54.152;19.432;2023-04-06T09:56:04;3.90;;;3.40;;
66741;SDS011;53654;54.152;19.432;2023-04-06T09:58:11;4.40;;;3.70;;
66741;SDS011;53654;54.152;19.432;2023-04-06T10:01:01;5.50;;;3.60;;
66741;SDS011;53654;54.152;19.432;2023-04-06T10:06:12;5.50;;;4.40;;
66741;SDS011;53654;54.152;19.432;2023-04-06T10:08:42;5.70;;;4.40;;
66741;SDS011;53654;54.152;19.432;2023-04-06T10:11:13;5.30;;;4.00;;
66741;SDS011;53654;54.152;19.432;2023-04-06T10:13:44;4.10;;;3.70;;
66741;SDS011;53654;54.152;19.432;2023-04-06T10:16:15;3.90;;;3.60;;
66741;SDS011;53654;54.152;19.432;2023-04-06T10:18:46;3.80;;;2.80;;
66741;SDS011;53654;54.152;19.432;2023-04-06T10:21:23;3.80;;;3.40;;
66741;SDS011;53654;54.152;19.432;2023-04-06T10:23:59;3.60;;;3.30;;
66741;SDS011;53654;54.152;19.432;2023-04-06T10:26:29;3.90;;;3.40;;
66741;SDS011;53654;54.152;19.432;2023-04-06T10:29:01;3.70;;;3.20;;
66741;SDS011;53654;54.152;19.432;2023-04-06T10:31:31;4.00;;;3.60;;
66741;SDS011;53654;54.152;19.432;2023-04-06T10:34:00;3.80;;;3.30;;
66741;SDS011;53654;54.152;19.432;2023-04-06T10:36:33;3.70;;;2.90;;
66741;SDS011;53654;54.152;19.432;2023-04-06T10:39:03;4.00;;;3.00;;
66741;SDS011;53654;54.152;19.432;2023-04-06T10:41:33;3.70;;;2.40;;
66741;SDS011;53654;54.152;19.432;2023-04-06T10:44:22;3.10;;;2.20;;
66741;SDS011;53654;54.152;19.432;2023-04-06T10:46:55;2.50;;;2.20;;
66741;SDS011;53654;54.152;19.432;2023-04-06T10:49:24;4.40;;;2.20;;
66741;SDS011;53654;54.152;19.432;2023-04-06T10:51:55;3.00;;;2.10;;
66741;SDS011;53654;54.152;19.432;2023-04-06T10:54:24;3.60;;;2.40;;
66741;SDS011;53654;54.152;19.432;2023-04-06T10:56:53;3.70;;;2.20;;
66741;SDS011;53654;54.152;19.432;2023-04-06T10:59:21;3.70;;;2.10;;
66741;SDS011;53654;54.152;19.432;2023-04-06T11:01:50;2.20;;;1.40;;
66741;SDS011;53654;54.152;19.432;2023-04-06T11:04:19;2.70;;;1.30;;
66741;SDS011;53654;54.152;19.432;2023-04-06T11:06:49;1.70;;;1.50;;
66741;SDS011;53654;54.152;19.432;2023-04-06T11:09:28;1.70;;;1.20;;
66741;SDS011;53654;54.152;19.432;2023-04-06T11:11:59;2.10;;;1.50;;
66741;SDS011;53654;54.152;19.432;2023-04-06T11:14:28;2.20;;;1.60;;
66741;SDS011;53654;54.152;19.432;2023-04-06T11:16:56;1.30;;;1.20;;
66741;SDS011;53654;54.152;19.432;2023-04-06T11:19:24;1.60;;;1.40;;
66741;SDS011;53654;54.152;19.432;2023-04-06T11:21:53;2.90;;;1.70;;
66741;SDS011;53654;54.152;19.432;2023-04-06T11:24:21;1.40;;;1.10;;
66741;SDS011;53654;54.152;19.432;2023-04-06T11:29:24;1.70;;;1.30;;
66741;SDS011;53654;54.152;19.432;2023-04-06T11:31:58;1.90;;;1.30;;
66741;SDS011;53654;54.152;19.432;2023-04-06T11:34:28;2.10;;;1.20;;
66741;SDS011;53654;54.152;19.432;2023-04-06T11:36:58;1.40;;;1.30;;
66741;SDS011;53654;54.152;19.432;2023-04-06T11:39:28;1.40;;;1.30;;
66741;SDS011;53654;54.152;19.432;2023-04-06T11:41:58;1.50;;;1.20;;
66741;SDS011;53654;54.152;19.432;2023-04-06T11:46:57;1.60;;;1.40;;
66741;SDS011;53654;54.152;19.432;2023-04-06T11:49:29;2.30;;;1.80;;
66741;SDS011;53654;54.152;19.432;2023-04-06T11:51:59;1.60;;;1.50;;
66741;SDS011;53654;54.152;19.432;2023-04-06T11:54:31;2.30;;;1.30;;
66741;SDS011;53654;54.152;19.432;2023-04-06T11:57:07;1.40;;;1.30;;
66741;SDS011;53654;54.152;19.432;2023-04-06T11:59:35;2.50;;;1.70;;
66741;SDS011;53654;54.152;19.432;2023-04-06T12:02:04;1.40;;;1.30;;
66741;SDS011;53654;54.152;19.432;2023-04-06T12:04:33;1.60;;;1.30;;
66741;SDS011;53654;54.152;19.432;2023-04-06T12:07:01;1.40;;;1.30;;
66741;SDS011;53654;54.152;19.432;2023-04-06T12:09:31;1.50;;;1.30;;
66741;SDS011;53654;54.152;19.432;2023-04-06T12:11:59;2.00;;;1.60;;
66741;SDS011;53654;54.152;19.432;2023-04-06T12:14:28;1.50;;;1.40;;
66741;SDS011;53654;54.152;19.432;2023-04-06T12:16:58;1.30;;;1.20;;
66741;SDS011;53654;54.152;19.432;2023-04-06T12:19:26;1.50;;;1.40;;
66741;SDS011;53654;54.152;19.432;2023-04-06T12:21:56;1.40;;;1.30;;
66741;SDS011;53654;54.152;19.432;2023-04-06T12:24:25;1.90;;;1.50;;
66741;SDS011;53654;54.152;19.432;2023-04-06T12:26:53;1.40;;;1.30;;
66741;SDS011;53654;54.152;19.432;2023-04-06T12:29:36;1.50;;;1.20;;
66741;SDS011;53654;54.152;19.432;2023-04-06T12:32:05;1.40;;;1.20;;
66741;SDS011;53654;54.152;19.432;2023-04-06T12:34:34;1.70;;;1.60;;
66741;SDS011;53654;54.152;19.432;2023-04-06T12:37:02;1.90;;;1.50;;
66741;SDS011;53654;54.152;19.432;2023-04-06T12:39:30;1.60;;;1.50;;
66741;SDS011;53654;54.152;19.432;2023-04-06T12:41:59;1.90;;;1.50;;
66741;SDS011;53654;54.152;19.432;2023-04-06T12:44:27;1.50;;;1.40;;
66741;SDS011;53654;54.152;19.432;2023-04-06T12:46:55;1.90;;;1.30;;
66741;SDS011;53654;54.152;19.432;2023-04-06T12:49:23;2.20;;;1.50;;
66741;SDS011;53654;54.152;19.432;2023-04-06T12:51:52;1.40;;;1.30;;
66741;SDS011;53654;54.152;19.432;2023-04-06T12:54:20;1.70;;;1.60;;
66741;SDS011;53654;54.152;19.432;2023-04-06T12:56:48;1.40;;;1.30;;
66741;SDS011;53654;54.152;19.432;2023-04-06T12:59:16;1.20;;;1.10;;
66741;SDS011;53654;54.152;19.432;2023-04-06T13:01:44;1.30;;;1.00;;
66741;SDS011;53654;54.152;19.432;2023-04-06T13:04:12;2.00;;;1.30;;
66741;SDS011;53654;54.152;19.432;2023-04-06T13:06:40;1.40;;;1.30;;
66741;SDS011;53654;54.152;19.432;2023-04-06T13:09:08;2.60;;;1.20;;
66741;SDS011;53654;54.152;19.432;2023-04-06T13:11:36;1.10;;;1.00;;
66741;SDS011;53654;54.152;19.432;2023-04-06T13:14:04;1.30;;;1.20;;
66741;SDS011;53654;54.152;19.432;2023-04-06T13:16:33;1.20;;;1.20;;
66741;SDS011;53654;54.152;19.432;2023-04-06T13:19:01;1.70;;;1.60;;
66741;SDS011;53654;54.152;19.432;2023-04-06T13:21:29;1.90;;;1.70;;
66741;SDS011;53654;54.152;19.432;2023-04-06T13:23:58;1.40;;;1.20;;
66741;SDS011;53654;54.152;19.432;2023-04-06T13:26:26;2.10;;;1.40;;
66741;SDS011;53654;54.152;19.432;2023-04-06T13:28:54;1.40;;;1.30;;
66741;SDS011;53654;54.152;19.432;2023-04-06T13:31:24;1.70;;;1.60;;
66741;SDS011;53654;54.152;19.432;2023-04-06T13:33:52;1.60;;;1.50;;
66741;SDS011;53654;54.152;19.432;2023-04-06T13:36:21;1.80;;;1.70;;
66741;SDS011;53654;54.152;19.432;2023-04-06T13:38:49;1.80;;;1.60;;
66741;SDS011;53654;54.152;19.432;2023-04-06T13:41:21;1.50;;;1.40;;
66741;SDS011;53654;54.152;19.432;2023-04-06T13:43:50;1.90;;;1.70;;
66741;SDS011;53654;54.152;19.432;2023-04-06T13:46:18;1.80;;;1.70;;
66741;SDS011;53654;54.152;19.432;2023-04-06T13:48:46;2.20;;;1.70;;
66741;SDS011;53654;54.152;19.432;2023-04-06T13:51:15;2.20;;;2.00;;
66741;SDS011;53654;54.152;19.432;2023-04-06T13:53:43;2.50;;;2.30;;
66741;SDS011;53654;54.152;19.432;2023-04-06T13:56:11;2.70;;;2.50;;
66741;SDS011;53654;54.152;19.432;2023-04-06T13:58:39;3.10;;;2.50;;
66741;SDS011;53654;54.152;19.432;2023-04-06T14:01:08;3.10;;;2.80;;
66741;SDS011;53654;54.152;19.432;2023-04-06T14:03:38;3.60;;;2.90;;
66741;SDS011;53654;54.152;19.432;2023-04-06T14:06:10;3.40;;;3.10;;
66741;SDS011;53654;54.152;19.432;2023-04-06T14:08:57;4.30;;;3.30;;
66741;SDS011;53654;54.152;19.432;2023-04-06T14:11:25;3.40;;;2.60;;
66741;SDS011;53654;54.152;19.432;2023-04-06T14:13:54;3.20;;;2.60;;
66741;SDS011;53654;54.152;19.432;2023-04-06T14:16:25;2.80;;;2.60;;
66741;SDS011;53654;54.152;19.432;2023-04-06T14:18:54;3.70;;;2.90;;
66741;SDS011;53654;54.152;19.432;2023-04-06T14:21:25;3.30;;;3.00;;
66741;SDS011;53654;54.152;19.432;2023-04-06T14:23:54;3.60;;;3.30;;
66741;SDS011;53654;54.152;19.432;2023-04-06T14:26:26;3.90;;;3.30;;
66741;SDS011;53654;54.152;19.432;2023-04-06T14:28:54;4.10;;;3.70;;
66741;SDS011;53654;54.152;19.432;2023-04-06T14:31:22;4.40;;;3.40;;
66741;SDS011;53654;54.152;19.432;2023-04-06T14:33:50;4.50;;;3.20;;
66741;SDS011;53654;54.152;19.432;2023-04-06T14:36:18;4.00;;;3.20;;
66741;SDS011;53654;54.152;19.432;2023-04-06T14:38:47;3.30;;;3.00;;
66741;SDS011;53654;54.152;19.432;2023-04-06T14:41:19;3.30;;;2.60;;
66741;SDS011;53654;54.152;19.432;2023-04-06T14:43:48;3.40;;;2.90;;
66741;SDS011;53654;54.152;19.432;2023-04-06T14:46:16;3.80;;;3.00;;
66741;SDS011;53654;54.152;19.432;2023-04-06T14:48:45;3.40;;;3.10;;
66741;SDS011;53654;54.152;19.432;2023-04-06T14:51:13;3.70;;;3.00;;
66741;SDS011;53654;54.152;19.432;2023-04-06T14:53:41;3.60;;;3.20;;
66741;SDS011;53654;54.152;19.432;2023-04-06T14:56:11;4.30;;;3.20;;